createdAt,value
2018-12-03T00:01:32.591Z,2.80
2018-12-03T00:04:33.326Z,2.80
2018-12-03T00:07:02.815Z,4.57
2018-12-03T00:09:31.844Z,1.20
2018-12-03T00:12:00.872Z,4.47
2018-12-03T00:14:29.906Z,3.50
2018-12-03T00:16:59.080Z,2.13
2018-12-03T00:19:28.377Z,2.03
2018-12-03T00:21:57.570Z,1.00
2018-12-03T00:24:26.708Z,2.23
2018-12-03T00:26:55.969Z,3.47
2018-12-03T00:29:25.198Z,1.70
2018-12-03T00:31:54.444Z,1.90
2018-12-03T00:34:23.442Z,3.20
2018-12-03T00:36:52.553Z,6.80
2018-12-03T00:39:21.625Z,2.13
2018-12-03T00:41:50.750Z,5.17
2018-12-03T00:44:19.971Z,3.00
2018-12-03T00:46:49.164Z,8.03
2018-12-03T00:49:18.366Z,3.07
2018-12-03T00:51:47.415Z,2.40
2018-12-03T00:54:16.627Z,3.50
2018-12-03T00:56:45.714Z,6.83
2018-12-03T00:59:14.859Z,6.33
2018-12-03T01:01:44.023Z,4.40
2018-12-03T01:04:13.187Z,5.17
2018-12-03T01:06:42.314Z,3.47
2018-12-03T01:09:11.571Z,6.60
2018-12-03T01:11:40.691Z,4.83
2018-12-03T01:14:09.763Z,4.97
2018-12-03T01:16:39.014Z,5.37
2018-12-03T01:19:08.155Z,4.10
2018-12-03T01:21:37.273Z,6.83
2018-12-03T01:24:06.554Z,4.10
2018-12-03T01:26:35.661Z,3.90
2018-12-03T01:29:04.872Z,6.90
2018-12-03T01:31:34.059Z,5.40
2018-12-03T01:34:03.128Z,4.80
2018-12-03T01:36:32.378Z,8.60
2018-12-03T01:39:01.527Z,3.33
2018-12-03T01:41:30.629Z,7.43
2018-12-03T01:43:59.714Z,6.03
2018-12-03T01:46:28.859Z,5.90
2018-12-03T01:48:57.898Z,6.00
2018-12-03T01:51:27.023Z,5.10
2018-12-03T01:53:56.192Z,10.63
2018-12-03T01:56:25.339Z,10.17
2018-12-03T01:58:54.535Z,8.53
2018-12-03T02:01:23.668Z,4.97
2018-12-03T02:03:52.687Z,5.40
2018-12-03T02:06:21.655Z,7.73
2018-12-03T02:08:50.769Z,8.07
2018-12-03T02:11:19.846Z,5.60
2018-12-03T02:13:48.879Z,6.67
2018-12-03T02:16:18.038Z,9.50
2018-12-03T02:18:47.250Z,7.50
2018-12-03T02:21:16.335Z,7.33
2018-12-03T02:23:45.432Z,10.77
2018-12-03T02:26:14.526Z,9.20
2018-12-03T02:28:43.766Z,12.30
2018-12-03T02:31:12.909Z,9.50
2018-12-03T02:33:42.020Z,4.27
2018-12-03T02:36:10.991Z,3.77
2018-12-03T02:38:40.112Z,8.97
2018-12-03T02:41:09.194Z,10.60
2018-12-03T02:43:38.647Z,6.80
2018-12-03T02:46:07.781Z,8.20
2018-12-03T02:48:36.888Z,6.97
2018-12-03T02:51:06.376Z,10.33
2018-12-03T02:53:35.492Z,7.60
2018-12-03T02:56:04.664Z,6.23
2018-12-03T02:58:33.794Z,9.70
2018-12-03T03:01:03.007Z,8.17
2018-12-03T03:03:32.049Z,9.20
2018-12-03T03:06:01.157Z,6.03
2018-12-03T03:08:30.271Z,9.90
2018-12-03T03:10:59.344Z,5.47
2018-12-03T03:13:28.474Z,9.13
2018-12-03T03:15:57.750Z,8.97
2018-12-03T03:18:27.036Z,11.20
2018-12-03T03:20:56.139Z,8.57
2018-12-03T03:23:25.331Z,12.37
2018-12-03T03:25:54.545Z,11.47
2018-12-03T03:28:23.865Z,15.57
2018-12-03T03:30:52.936Z,5.50
2018-12-03T03:33:22.118Z,6.27
2018-12-03T03:35:51.210Z,11.37
2018-12-03T03:38:20.395Z,6.00
2018-12-03T03:40:49.599Z,8.07
2018-12-03T03:43:18.682Z,6.73
2018-12-03T03:45:47.680Z,6.70
2018-12-03T03:48:16.761Z,8.10
2018-12-03T03:50:45.912Z,6.93
2018-12-03T03:53:15.096Z,7.40
2018-12-03T03:55:44.478Z,5.70
2018-12-03T03:58:13.807Z,9.97
2018-12-03T04:00:42.973Z,3.30
2018-12-03T04:03:12.050Z,11.00
2018-12-03T04:05:41.060Z,2.07
2018-12-03T04:08:10.438Z,3.17
2018-12-03T04:10:39.684Z,3.00
2018-12-03T04:13:08.757Z,7.60
2018-12-03T04:15:38.009Z,4.80
2018-12-03T04:18:07.323Z,6.60
2018-12-03T04:20:36.440Z,3.40
2018-12-03T04:23:05.870Z,4.13
2018-12-03T04:25:34.931Z,2.00
2018-12-03T04:28:04.185Z,7.20
2018-12-03T04:30:33.310Z,3.37
2018-12-03T04:33:02.442Z,2.60
2018-12-03T04:35:31.596Z,4.40
2018-12-03T04:38:00.748Z,2.30
2018-12-03T04:40:29.890Z,2.20
2018-12-03T04:42:58.875Z,3.57
2018-12-03T04:45:27.924Z,3.20
2018-12-03T04:47:57.092Z,2.20
2018-12-03T04:50:26.118Z,4.43
2018-12-03T04:52:55.168Z,3.30
2018-12-03T04:55:24.241Z,2.77
2018-12-03T04:57:53.454Z,3.40
2018-12-03T05:00:22.631Z,2.20
2018-12-03T05:02:53.222Z,2.70
2018-12-03T05:05:22.194Z,5.67
2018-12-03T05:07:51.272Z,2.10
2018-12-03T05:10:21.026Z,4.30
2018-12-03T05:12:52.190Z,2.10
2018-12-03T05:15:21.300Z,3.97
2018-12-03T05:17:50.550Z,2.47
2018-12-03T05:20:23.757Z,2.07
2018-12-03T05:22:52.781Z,6.30
2018-12-03T05:25:21.763Z,4.10
2018-12-03T05:27:51.071Z,3.00
2018-12-03T05:30:20.797Z,9.80
2018-12-03T05:32:49.923Z,4.77
2018-12-03T05:35:28.948Z,3.20
2018-12-03T05:37:58.310Z,3.53
2018-12-03T05:40:29.023Z,4.60
2018-12-03T05:42:58.500Z,2.83
2018-12-03T05:45:27.582Z,2.17
2018-12-03T05:47:56.708Z,2.60
2018-12-03T05:50:25.837Z,4.20
2018-12-03T05:52:54.898Z,2.57
2018-12-03T05:55:24.023Z,3.07
2018-12-03T05:57:53.107Z,2.53
2018-12-03T06:00:23.664Z,5.10
2018-12-03T06:02:53.009Z,2.90
2018-12-03T06:05:22.549Z,4.77
2018-12-03T06:07:51.638Z,4.73
2018-12-03T06:10:21.852Z,5.57
2018-12-03T06:12:51.039Z,9.93
2018-12-03T06:15:20.956Z,16.63
2018-12-03T06:17:51.270Z,11.03
2018-12-03T06:20:21.107Z,13.03
2018-12-03T06:22:51.075Z,20.33
2018-12-03T06:25:27.773Z,11.40
2018-12-03T06:27:56.807Z,15.07
2018-12-03T06:30:26.847Z,12.70
2018-12-03T06:32:56.654Z,13.37
2018-12-03T06:35:26.000Z,5.00
2018-12-03T06:37:54.985Z,5.77
2018-12-03T06:40:27.123Z,6.10
2018-12-03T06:42:56.120Z,6.00
2018-12-03T06:45:25.753Z,9.40
2018-12-03T06:47:59.010Z,8.20
2018-12-03T06:50:28.039Z,4.60
2018-12-03T06:52:57.017Z,3.97
2018-12-03T06:55:26.127Z,7.50
2018-12-03T06:57:55.277Z,9.93
2018-12-03T07:00:25.019Z,6.07
2018-12-03T07:02:54.012Z,4.23
2018-12-03T07:05:23.033Z,9.33
2018-12-03T07:07:53.646Z,16.57
2018-12-03T07:10:23.451Z,3.60
2018-12-03T07:12:56.936Z,11.00
2018-12-03T07:15:26.047Z,13.23
2018-12-03T07:17:56.668Z,8.93
2018-12-03T07:20:25.678Z,12.30
2018-12-03T07:22:54.635Z,17.10
2018-12-03T07:25:23.864Z,9.60
2018-12-03T07:27:53.165Z,11.73
2018-12-03T07:30:23.535Z,15.53
2018-12-03T07:32:53.004Z,9.23
2018-12-03T07:35:22.870Z,12.00
2018-12-03T07:37:53.214Z,9.73
2018-12-03T07:40:22.413Z,11.23
2018-12-03T07:42:51.399Z,5.10
2018-12-03T07:45:21.581Z,10.43
2018-12-03T07:47:50.617Z,10.73
2018-12-03T07:50:22.453Z,11.60
2018-12-03T07:52:51.477Z,10.93
2018-12-03T07:55:21.445Z,18.27
2018-12-03T07:57:57.190Z,11.13
2018-12-03T08:00:28.934Z,7.90
2018-12-03T08:02:58.082Z,10.13
2018-12-03T08:05:27.130Z,16.53
2018-12-03T08:07:56.178Z,7.70
2018-12-03T08:10:25.139Z,12.20
2018-12-03T08:12:54.271Z,11.57
2018-12-03T08:15:23.343Z,15.57
2018-12-03T08:17:55.782Z,9.00
2018-12-03T08:20:26.688Z,21.80
2018-12-03T08:22:58.884Z,13.70
2018-12-03T08:25:28.004Z,18.20
2018-12-03T08:27:57.163Z,12.47
2018-12-03T08:30:26.199Z,18.60
2018-12-03T08:32:55.216Z,10.43
2018-12-03T08:35:24.166Z,15.63
2018-12-03T08:37:53.232Z,12.33
2018-12-03T08:40:22.392Z,11.60
2018-12-03T08:42:55.466Z,29.33
2018-12-03T08:45:25.592Z,19.87
2018-12-03T08:47:54.814Z,12.63
2018-12-03T08:50:25.137Z,14.63
2018-12-03T08:52:55.221Z,11.20
2018-12-03T08:55:24.237Z,15.07
2018-12-03T08:57:53.499Z,12.40
2018-12-03T09:00:25.959Z,13.70
2018-12-03T09:03:03.299Z,16.03
2018-12-03T09:05:37.303Z,12.30
2018-12-03T09:08:09.768Z,15.00
2018-12-03T09:10:39.474Z,19.10
2018-12-03T09:13:24.424Z,11.30
2018-12-03T09:15:58.513Z,12.17
2018-12-03T09:18:32.942Z,15.47
2018-12-03T09:21:01.960Z,13.17
2018-12-03T09:23:30.922Z,14.20
2018-12-03T09:25:59.973Z,13.73
2018-12-03T09:28:29.381Z,16.60
2018-12-03T09:30:58.550Z,17.77
2018-12-03T09:33:27.612Z,18.80
2018-12-03T09:35:56.728Z,19.03
2018-12-03T09:38:25.970Z,20.27
2018-12-03T09:41:01.675Z,16.43
2018-12-03T09:43:31.053Z,13.37
2018-12-03T09:46:00.047Z,14.50
2018-12-03T09:48:29.390Z,16.57
2018-12-03T09:50:58.450Z,15.77
2018-12-03T09:53:27.532Z,10.30
2018-12-03T09:55:57.225Z,11.43
2018-12-03T09:58:26.385Z,13.77
2018-12-03T10:00:55.884Z,13.63
2018-12-03T10:03:28.154Z,11.47
2018-12-03T10:06:02.174Z,14.50
2018-12-03T10:08:31.900Z,15.63
2018-12-03T10:11:02.623Z,16.00
2018-12-03T10:13:32.629Z,9.77
2018-12-03T10:16:02.260Z,14.43
2018-12-03T10:18:34.085Z,10.93
2018-12-03T10:21:03.589Z,18.73
2018-12-03T10:23:32.747Z,12.07
2018-12-03T10:26:03.283Z,21.37
2018-12-03T10:28:32.372Z,16.80
2018-12-03T10:31:01.882Z,14.20
2018-12-03T10:33:32.510Z,11.77
2018-12-03T10:36:03.797Z,16.30
2018-12-03T10:38:34.552Z,17.90
2018-12-03T10:41:06.663Z,9.77
2018-12-03T10:43:36.206Z,19.33
2018-12-03T10:46:05.907Z,17.83
2018-12-03T10:48:35.312Z,18.97
2018-12-03T10:51:04.625Z,14.33
2018-12-03T10:53:33.755Z,16.33
2018-12-03T10:56:02.832Z,12.20
2018-12-03T10:58:35.732Z,17.10
2018-12-03T11:01:13.098Z,12.60
2018-12-03T11:03:47.436Z,10.87
2018-12-03T11:06:17.995Z,19.17
2018-12-03T11:08:47.692Z,15.80
2018-12-03T11:11:16.963Z,14.70
2018-12-03T11:13:49.705Z,13.93
2018-12-03T11:16:26.416Z,20.70
2018-12-03T11:18:56.546Z,12.47
2018-12-03T11:21:26.506Z,10.40
2018-12-03T11:23:55.655Z,7.40
2018-12-03T11:26:30.301Z,17.13
2018-12-03T11:28:59.602Z,16.10
2018-12-03T11:31:30.338Z,15.83
2018-12-03T11:33:59.550Z,10.80
2018-12-03T11:36:31.316Z,9.80
2018-12-03T11:39:08.989Z,13.57
2018-12-03T11:41:38.271Z,16.23
2018-12-03T11:44:07.452Z,15.30
2018-12-03T11:46:36.649Z,18.27
2018-12-03T11:49:06.635Z,15.23
2018-12-03T11:51:35.834Z,5.90
2018-12-03T11:54:05.140Z,11.50
2018-12-03T11:56:34.302Z,11.83
2018-12-03T11:59:03.425Z,9.33
2018-12-03T12:01:32.485Z,17.10
2018-12-03T12:04:01.642Z,16.33
2018-12-03T12:06:30.655Z,16.80
2018-12-03T12:08:59.698Z,8.40
2018-12-03T12:11:28.763Z,13.63
2018-12-03T12:13:57.794Z,8.63
2018-12-03T12:16:26.815Z,10.30
2018-12-03T12:18:56.075Z,9.63
2018-12-03T12:21:25.098Z,11.60
2018-12-03T12:23:54.288Z,14.10
2018-12-03T12:26:23.299Z,12.40
2018-12-03T12:28:52.419Z,14.27
2018-12-03T12:31:21.480Z,17.87
2018-12-03T12:33:50.462Z,14.50
2018-12-03T12:36:19.799Z,13.93
2018-12-03T12:38:48.939Z,12.30
2018-12-03T12:41:18.589Z,13.70
2018-12-03T12:43:47.746Z,14.10
2018-12-03T12:46:19.623Z,20.13
2018-12-03T12:48:48.915Z,16.30
2018-12-03T12:51:18.308Z,21.67
2018-12-03T12:53:47.334Z,14.53
2018-12-03T12:56:16.602Z,13.67
2018-12-03T12:58:45.820Z,9.20
2018-12-03T13:01:15.015Z,7.53
2018-12-03T13:03:44.423Z,15.67
2018-12-03T13:06:13.593Z,14.33
2018-12-03T13:08:43.281Z,13.30
2018-12-03T13:11:12.481Z,9.50
2018-12-03T13:13:41.622Z,11.60
2018-12-03T13:16:10.841Z,8.90
2018-12-03T13:18:40.205Z,11.40
2018-12-03T13:21:09.395Z,14.60
2018-12-03T13:23:38.575Z,9.70
2018-12-03T13:26:08.585Z,9.73
2018-12-03T13:28:37.735Z,8.30
2018-12-03T13:31:07.003Z,16.17
2018-12-03T13:33:36.297Z,8.40
2018-12-03T13:36:05.840Z,15.33
2018-12-03T13:38:35.298Z,9.40
2018-12-03T13:41:04.383Z,5.27
2018-12-03T13:43:33.419Z,5.00
2018-12-03T13:46:02.555Z,10.50
2018-12-03T13:48:31.820Z,12.13
2018-12-03T13:51:00.916Z,10.33
2018-12-03T13:53:30.065Z,7.17
2018-12-03T13:55:59.955Z,6.80
2018-12-03T13:58:29.165Z,8.33
2018-12-03T14:00:58.269Z,10.33
2018-12-03T14:03:30.296Z,15.23
2018-12-03T14:06:22.201Z,10.27
2018-12-03T14:08:59.870Z,10.90
2018-12-03T14:11:41.651Z,16.23
2018-12-03T14:16:30.674Z,7.37
2018-12-03T14:19:03.477Z,7.27
2018-12-03T14:21:36.078Z,7.57
2018-12-03T14:24:10.334Z,10.57
2018-12-03T14:26:39.599Z,13.30
2018-12-03T14:29:08.725Z,6.60
2018-12-03T14:31:37.877Z,7.90
2018-12-03T14:34:07.054Z,6.43
2018-12-03T14:36:36.210Z,10.57
2018-12-03T14:39:07.196Z,10.00
2018-12-03T14:41:36.308Z,10.13
2018-12-03T14:44:05.482Z,8.80
2018-12-03T14:46:34.480Z,11.57
2018-12-03T14:49:03.673Z,18.37
2018-12-03T14:51:32.828Z,8.33
2018-12-03T14:54:01.936Z,8.83
2018-12-03T14:56:31.081Z,8.20
2018-12-03T14:59:00.227Z,11.00
2018-12-03T15:01:29.365Z,11.40
2018-12-03T15:03:58.749Z,14.30
2018-12-03T15:06:28.487Z,12.43
2018-12-03T15:08:57.656Z,16.43
2018-12-03T15:11:26.811Z,10.90
2018-12-03T15:13:56.459Z,15.40
2018-12-03T15:16:25.507Z,10.43
2018-12-03T15:18:54.631Z,13.00
2018-12-03T15:21:23.628Z,10.73
2018-12-03T15:23:52.643Z,15.20
2018-12-03T15:26:21.624Z,20.30
2018-12-03T15:28:50.631Z,8.20
2018-12-03T15:31:19.590Z,9.37
2018-12-03T15:33:48.652Z,8.70
2018-12-03T15:36:17.761Z,11.83
2018-12-03T15:38:46.810Z,15.73
2018-12-03T15:41:15.980Z,11.30
2018-12-03T15:43:45.034Z,9.20
2018-12-03T15:46:14.046Z,16.47
2018-12-03T15:48:43.073Z,22.10
2018-12-03T15:51:12.133Z,9.23
2018-12-03T15:53:41.154Z,7.70
2018-12-03T15:56:10.136Z,5.03
2018-12-03T15:58:39.285Z,4.60
2018-12-03T16:01:08.295Z,3.30
2018-12-03T16:03:37.425Z,4.33
2018-12-03T16:06:06.417Z,3.83
2018-12-03T16:08:35.384Z,5.80
2018-12-03T16:11:04.626Z,7.87
2018-12-03T16:13:33.783Z,5.90
2018-12-03T16:16:02.905Z,3.87
2018-12-03T16:18:32.039Z,3.00
2018-12-03T16:21:01.179Z,4.30
2018-12-03T16:23:30.256Z,3.37
2018-12-03T16:25:59.421Z,2.70
2018-12-03T16:28:28.539Z,4.53
2018-12-03T16:30:57.752Z,2.90
2018-12-03T16:33:26.843Z,5.37
2018-12-03T16:35:55.864Z,5.63
2018-12-03T16:38:24.941Z,6.70
2018-12-03T16:40:54.150Z,8.93
2018-12-03T16:43:23.228Z,4.70
2018-12-03T16:45:52.322Z,7.30
2018-12-03T16:48:21.304Z,7.73
2018-12-03T16:50:50.425Z,10.77
2018-12-03T16:53:19.514Z,7.07
2018-12-03T16:55:48.608Z,7.77
2018-12-03T16:58:17.598Z,9.13
2018-12-03T17:00:46.682Z,9.70
2018-12-03T17:03:15.664Z,9.70
2018-12-03T17:05:44.914Z,7.30
2018-12-03T17:08:14.682Z,12.50
2018-12-03T17:10:43.669Z,7.57
2018-12-03T17:13:12.807Z,10.50
2018-12-03T17:15:41.866Z,7.27
2018-12-03T17:18:11.011Z,10.17
2018-12-03T17:21:01.923Z,12.37
2018-12-03T17:23:42.116Z,7.23
2018-12-03T17:26:11.111Z,11.37
2018-12-03T17:28:40.124Z,12.37
2018-12-03T17:31:09.225Z,10.87
2018-12-03T17:33:38.274Z,9.40
2018-12-03T17:36:07.336Z,8.97
2018-12-03T17:38:36.369Z,8.13
2018-12-03T17:41:05.366Z,12.93
2018-12-03T17:43:34.423Z,14.10
2018-12-03T17:46:03.654Z,10.33
2018-12-03T17:48:32.663Z,6.87
2018-12-03T17:51:01.698Z,8.10
2018-12-03T17:53:30.730Z,8.33
2018-12-03T17:55:59.722Z,7.40
2018-12-03T17:58:28.734Z,8.70
2018-12-03T18:00:57.873Z,8.97
2018-12-03T18:03:27.057Z,15.20
2018-12-03T18:05:56.082Z,13.50
2018-12-03T18:08:25.106Z,6.53
2018-12-03T18:10:54.184Z,11.13
2018-12-03T18:13:23.303Z,10.70
2018-12-03T18:15:52.265Z,6.43
2018-12-03T18:18:21.285Z,10.97
2018-12-03T18:20:50.314Z,7.30
2018-12-03T18:23:19.375Z,12.43
2018-12-03T18:25:48.437Z,12.00
2018-12-03T18:28:17.445Z,14.57
2018-12-03T18:30:46.428Z,11.63
2018-12-03T18:33:15.430Z,8.03
2018-12-03T18:35:44.711Z,16.83
2018-12-03T18:38:14.033Z,16.70
2018-12-03T18:40:43.003Z,12.63
2018-12-03T18:43:12.024Z,11.93
2018-12-03T18:45:41.083Z,9.33
2018-12-03T18:48:11.671Z,7.93
2018-12-03T18:50:41.949Z,11.13
2018-12-03T18:53:17.037Z,14.27
2018-12-03T18:55:46.115Z,13.60
2018-12-03T18:58:17.466Z,15.40
2018-12-03T19:00:46.535Z,11.03
2018-12-03T19:03:15.496Z,14.80
2018-12-03T19:05:44.512Z,13.80
2018-12-03T19:08:13.467Z,10.87
2018-12-03T19:10:42.580Z,13.73
2018-12-03T19:13:11.673Z,14.30
2018-12-03T19:15:40.795Z,9.47
2018-12-03T19:18:09.864Z,14.37
2018-12-03T19:20:39.020Z,11.47
2018-12-03T19:23:08.051Z,8.33
2018-12-03T19:25:37.145Z,12.33
2018-12-03T19:28:06.234Z,18.90
2018-12-03T19:30:35.361Z,11.77
2018-12-03T19:33:04.529Z,14.63
2018-12-03T19:35:33.534Z,16.13
2018-12-03T23:06:55.702Z,17.97
2018-12-03T23:09:23.279Z,20.23
2018-12-03T23:11:50.872Z,19.10
2018-12-03T23:14:18.790Z,27.13
2018-12-03T23:16:46.426Z,23.37
2018-12-03T23:19:14.035Z,24.27
2018-12-03T23:21:41.749Z,26.27
2018-12-03T23:24:09.454Z,24.33
2018-12-03T23:26:37.161Z,16.57
2018-12-03T23:29:04.762Z,23.37
2018-12-03T23:31:32.390Z,22.60
2018-12-03T23:34:00.041Z,15.80
2018-12-03T23:36:27.792Z,14.23
2018-12-03T23:38:55.388Z,11.63
2018-12-03T23:41:23.029Z,12.63
2018-12-03T23:43:50.687Z,12.90
2018-12-03T23:46:18.279Z,10.70
2018-12-03T23:48:45.991Z,9.00
2018-12-03T23:51:13.642Z,11.80
2018-12-03T23:53:41.249Z,7.57
2018-12-03T23:56:08.882Z,8.43
2018-12-03T23:58:37.280Z,10.10
